sensor_id;sensor_type;location;lat;lon;timestamp;pressure;altitude;pressure_sealevel;temperature;humidity
58875;BME280;44652;49.040;12.126;2024-03-06T00:02:22;97435.25;;;6.77;100.00
58875;BME280;44652;49.040;12.126;2024-03-06T00:04:49;97435.91;;;6.71;100.00
58875;BME280;44652;49.040;12.126;2024-03-06T00:07:16;97439.03;;;6.63;100.00
58875;BME280;44652;49.040;12.126;2024-03-06T00:09:43;97412.56;;;6.55;100.00
58875;BME280;44652;49.040;12.126;2024-03-06T00:12:09;97442.38;;;6.58;100.00
58875;BME280;44652;49.040;12.126;2024-03-06T00:14:36;97443.22;;;6.57;100.00
58875;BME280;44652;49.040;12.126;2024-03-06T00:17:03;97455.38;;;6.55;100.00
58875;BME280;44652;49.040;12.126;2024-03-06T00:19:34;97449.00;;;6.49;100.00
58875;BME280;44652;49.040;12.126;2024-03-06T00:22:01;97444.69;;;6.51;100.00
58875;BME280;44652;49.040;12.126;2024-03-06T00:24:29;97435.91;;;6.49;100.00
58875;BME280;44652;49.040;12.126;2024-03-06T00:26:56;97466.66;;;6.54;100.00
58875;BME280;44652;49.040;12.126;2024-03-06T00:29:23;97466.66;;;6.54;100.00
58875;BME280;44652;49.040;12.126;2024-03-06T00:31:49;97468.66;;;6.60;100.00
58875;BME280;44652;49.040;12.126;2024-03-06T00:34:17;97469.34;;;6.56;100.00
58875;BME280;44652;49.040;12.126;2024-03-06T00:36:44;97447.09;;;6.45;100.00
58875;BME280;44652;49.040;12.126;2024-03-06T00:39:10;97456.00;;;6.50;100.00
58875;BME280;44652;49.040;12.126;2024-03-06T00:41:37;97468.47;;;6.55;100.00
58875;BME280;44652;49.040;12.126;2024-03-06T00:44:04;97463.22;;;6.55;100.00
58875;BME280;44652;49.040;12.126;2024-03-06T00:46:32;97472.69;;;6.52;100.00
58875;BME280;44652;49.040;12.126;2024-03-06T00:48:59;97461.06;;;6.45;100.00
58875;BME280;44652;49.040;12.126;2024-03-06T00:51:25;97470.00;;;6.50;100.00
58875;BME280;44652;49.040;12.126;2024-03-06T00:54:07;97473.44;;;6.49;100.00
58875;BME280;44652;49.040;12.126;2024-03-06T00:56:37;97474.22;;;6.47;100.00
58875;BME280;44652;49.040;12.126;2024-03-06T00:59:05;97447.56;;;6.34;100.00
58875;BME280;44652;49.040;12.126;2024-03-06T01:01:32;97468.75;;;6.41;100.00
58875;BME280;44652;49.040;12.126;2024-03-06T01:03:59;97456.97;;;6.29;100.00
58875;BME280;44652;49.040;12.126;2024-03-06T01:06:26;97462.13;;;6.28;100.00
58875;BME280;44652;49.040;12.126;2024-03-06T01:08:53;97450.53;;;6.21;100.00
58875;BME280;44652;49.040;12.126;2024-03-06T01:11:21;97446.94;;;6.19;100.00
58875;BME280;44652;49.040;12.126;2024-03-06T01:13:48;97457.38;;;6.18;100.00
58875;BME280;44652;49.040;12.126;2024-03-06T01:16:15;97465.63;;;6.28;100.00
58875;BME280;44652;49.040;12.126;2024-03-06T01:18:42;97443.44;;;6.19;100.00
58875;BME280;44652;49.040;12.126;2024-03-06T01:21:09;97444.91;;;6.12;100.00
58875;BME280;44652;49.040;12.126;2024-03-06T01:23:36;97445.66;;;6.09;100.00
58875;BME280;44652;49.040;12.126;2024-03-06T01:26:02;97451.16;;;6.16;100.00
58875;BME280;44652;49.040;12.126;2024-03-06T01:28:29;97470.13;;;6.10;100.00
58875;BME280;44652;49.040;12.126;2024-03-06T01:30:56;97472.81;;;6.12;100.00
58875;BME280;44652;49.040;12.126;2024-03-06T01:33:25;97465.78;;;6.11;100.00
58875;BME280;44652;49.040;12.126;2024-03-06T01:35:51;97457.63;;;6.03;100.00
58875;BME280;44652;49.040;12.126;2024-03-06T01:38:18;97467.03;;;6.20;100.00
58875;BME280;44652;49.040;12.126;2024-03-06T01:40:45;97473.28;;;6.24;100.00
58875;BME280;44652;49.040;12.126;2024-03-06T01:43:23;97474.00;;;6.20;100.00
58875;BME280;44652;49.040;12.126;2024-03-06T01:45:51;97478.88;;;6.11;100.00
58875;BME280;44652;49.040;12.126;2024-03-06T01:48:21;97453.19;;;6.02;100.00
58875;BME280;44652;49.040;12.126;2024-03-06T01:50:49;97444.47;;;6.01;100.00
58875;BME280;44652;49.040;12.126;2024-03-06T01:53:16;97451.41;;;6.01;100.00
58875;BME280;44652;49.040;12.126;2024-03-06T01:55:45;97453.03;;;5.97;100.00
58875;BME280;44652;49.040;12.126;2024-03-06T01:58:12;97458.44;;;6.02;100.00
58875;BME280;44652;49.040;12.126;2024-03-06T02:00:39;97467.06;;;5.99;100.00
58875;BME280;44652;49.040;12.126;2024-03-06T02:03:06;97462.84;;;6.03;100.00
58875;BME280;44652;49.040;12.126;2024-03-06T02:05:34;97464.44;;;5.99;100.00
58875;BME280;44652;49.040;12.126;2024-03-06T02:08:02;97445.78;;;5.92;100.00
58875;BME280;44652;49.040;12.126;2024-03-06T02:10:30;97464.59;;;6.02;100.00
58875;BME280;44652;49.040;12.126;2024-03-06T02:12:57;97441.38;;;5.91;100.00
58875;BME280;44652;49.040;12.126;2024-03-06T02:15:24;97434.22;;;5.86;100.00
58875;BME280;44652;49.040;12.126;2024-03-06T02:17:51;97446.56;;;5.89;100.00
58875;BME280;44652;49.040;12.126;2024-03-06T02:20:24;97458.88;;;5.92;100.00
58875;BME280;44652;49.040;12.126;2024-03-06T02:22:51;97455.03;;;5.83;100.00
58875;BME280;44652;49.040;12.126;2024-03-06T02:25:18;97455.94;;;5.84;100.00
58875;BME280;44652;49.040;12.126;2024-03-06T02:27:46;97458.28;;;5.78;100.00
58875;BME280;44652;49.040;12.126;2024-03-06T02:30:14;97462.09;;;5.86;100.00
58875;BME280;44652;49.040;12.126;2024-03-06T02:32:45;97467.16;;;5.81;100.00
58875;BME280;44652;49.040;12.126;2024-03-06T02:35:12;97436.03;;;5.67;100.00
58875;BME280;44652;49.040;12.126;2024-03-06T02:37:43;97456.75;;;5.83;100.00
58875;BME280;44652;49.040;12.126;2024-03-06T02:40:11;97453.81;;;5.75;100.00
58875;BME280;44652;49.040;12.126;2024-03-06T02:42:38;97450.44;;;5.78;100.00
58875;BME280;44652;49.040;12.126;2024-03-06T02:45:06;97436.84;;;5.66;100.00
58875;BME280;44652;49.040;12.126;2024-03-06T02:47:34;97445.59;;;5.66;100.00
58875;BME280;44652;49.040;12.126;2024-03-06T02:50:01;97435.97;;;5.65;100.00
58875;BME280;44652;49.040;12.126;2024-03-06T02:52:28;97441.19;;;5.65;100.00
58875;BME280;44652;49.040;12.126;2024-03-06T02:54:55;97436.84;;;5.66;100.00
58875;BME280;44652;49.040;12.126;2024-03-06T02:57:22;97433.34;;;5.65;100.00
58875;BME280;44652;49.040;12.126;2024-03-06T02:59:49;97414.91;;;5.62;100.00
58875;BME280;44652;49.040;12.126;2024-03-06T03:02:15;97442.91;;;5.65;100.00
58875;BME280;44652;49.040;12.126;2024-03-06T03:04:42;97429.94;;;5.68;100.00
58875;BME280;44652;49.040;12.126;2024-03-06T03:07:10;97455.44;;;5.52;100.00
58875;BME280;44652;49.040;12.126;2024-03-06T03:09:37;97432.81;;;5.53;100.00
58875;BME280;44652;49.040;12.126;2024-03-06T03:12:05;97453.66;;;5.51;100.00
58875;BME280;44652;49.040;12.126;2024-03-06T03:14:32;97436.13;;;5.49;100.00
58875;BME280;44652;49.040;12.126;2024-03-06T03:17:02;97429.47;;;5.36;100.00
58875;BME280;44652;49.040;12.126;2024-03-06T03:19:29;97438.97;;;5.34;100.00
58875;BME280;44652;49.040;12.126;2024-03-06T03:21:56;97421.66;;;5.36;100.00
58875;BME280;44652;49.040;12.126;2024-03-06T03:24:22;97453.34;;;5.44;100.00
58875;BME280;44652;49.040;12.126;2024-03-06T03:26:50;97447.91;;;5.39;100.00
58875;BME280;44652;49.040;12.126;2024-03-06T03:29:18;97439.84;;;5.54;100.00
58875;BME280;44652;49.040;12.126;2024-03-06T03:31:44;97428.66;;;5.37;100.00
58875;BME280;44652;49.040;12.126;2024-03-06T03:34:11;97443.78;;;5.44;100.00
58875;BME280;44652;49.040;12.126;2024-03-06T03:36:42;97440.91;;;5.38;100.00
58875;BME280;44652;49.040;12.126;2024-03-06T03:39:12;97437.19;;;5.33;100.00
58875;BME280;44652;49.040;12.126;2024-03-06T03:41:48;97456.69;;;5.41;100.00
58875;BME280;44652;49.040;12.126;2024-03-06T03:44:16;97452.31;;;5.40;100.00
58875;BME280;44652;49.040;12.126;2024-03-06T03:46:43;97434.31;;;5.27;100.00
58875;BME280;44652;49.040;12.126;2024-03-06T03:49:11;97436.00;;;5.26;100.00
58875;BME280;44652;49.040;12.126;2024-03-06T03:51:39;97440.91;;;5.19;100.00
58875;BME280;44652;49.040;12.126;2024-03-06T03:54:08;97454.94;;;5.21;100.00
58875;BME280;44652;49.040;12.126;2024-03-06T03:56:35;97462.28;;;5.10;100.00
58875;BME280;44652;49.040;12.126;2024-03-06T03:59:02;97444.50;;;5.01;100.00
58875;BME280;44652;49.040;12.126;2024-03-06T04:01:29;97447.88;;;4.99;100.00
58875;BME280;44652;49.040;12.126;2024-03-06T04:03:56;97467.81;;;4.97;100.00
58875;BME280;44652;49.040;12.126;2024-03-06T04:06:23;97462.78;;;4.82;100.00
58875;BME280;44652;49.040;12.126;2024-03-06T04:08:50;97456.19;;;4.90;100.00
58875;BME280;44652;49.040;12.126;2024-03-06T04:11:17;97470.59;;;4.82;100.00
58875;BME280;44652;49.040;12.126;2024-03-06T04:13:44;97480.50;;;4.89;100.00
58875;BME280;44652;49.040;12.126;2024-03-06T04:16:17;97475.41;;;4.92;100.00
58875;BME280;44652;49.040;12.126;2024-03-06T04:18:45;97474.66;;;4.95;100.00
58875;BME280;44652;49.040;12.126;2024-03-06T04:21:14;97472.69;;;4.89;100.00
58875;BME280;44652;49.040;12.126;2024-03-06T04:23:43;97465.38;;;4.82;100.00
58875;BME280;44652;49.040;12.126;2024-03-06T04:26:10;97479.69;;;4.90;100.00
58875;BME280;44652;49.040;12.126;2024-03-06T04:28:37;97460.50;;;4.90;100.00
58875;BME280;44652;49.040;12.126;2024-03-06T04:31:04;97469.09;;;4.87;100.00
58875;BME280;44652;49.040;12.126;2024-03-06T04:33:31;97469.25;;;4.90;100.00
58875;BME280;44652;49.040;12.126;2024-03-06T04:35:58;97481.06;;;5.01;100.00
58875;BME280;44652;49.040;12.126;2024-03-06T04:38:26;97480.97;;;5.00;100.00
58875;BME280;44652;49.040;12.126;2024-03-06T04:40:53;97474.03;;;4.81;100.00
58875;BME280;44652;49.040;12.126;2024-03-06T04:43:20;97488.69;;;4.97;100.00
58875;BME280;44652;49.040;12.126;2024-03-06T04:45:46;97464.63;;;4.84;100.00
58875;BME280;44652;49.040;12.126;2024-03-06T04:48:13;97479.66;;;4.71;100.00
58875;BME280;44652;49.040;12.126;2024-03-06T04:50:40;97497.09;;;4.72;100.00
58875;BME280;44652;49.040;12.126;2024-03-06T04:53:07;97486.59;;;4.70;100.00
58875;BME280;44652;49.040;12.126;2024-03-06T04:55:34;97478.88;;;4.73;100.00
58875;BME280;44652;49.040;12.126;2024-03-06T04:58:05;97482.53;;;4.77;100.00
58875;BME280;44652;49.040;12.126;2024-03-06T05:00:32;97478.97;;;4.75;100.00
58875;BME280;44652;49.040;12.126;2024-03-06T05:02:59;97502.63;;;4.78;100.00
58875;BME280;44652;49.040;12.126;2024-03-06T05:05:43;97493.13;;;4.80;100.00
58875;BME280;44652;49.040;12.126;2024-03-06T05:08:28;97504.63;;;4.66;100.00
58875;BME280;44652;49.040;12.126;2024-03-06T05:11:13;97511.41;;;4.80;100.00
58875;BME280;44652;49.040;12.126;2024-03-06T05:14:01;97522.50;;;4.94;100.00
58875;BME280;44652;49.040;12.126;2024-03-06T05:16:45;97511.56;;;4.83;100.00
58875;BME280;44652;49.040;12.126;2024-03-06T05:19:29;97526.00;;;4.94;100.00
58875;BME280;44652;49.040;12.126;2024-03-06T05:22:16;97513.53;;;4.88;100.00
58875;BME280;44652;49.040;12.126;2024-03-06T05:25:01;97533.44;;;5.04;100.00
58875;BME280;44652;49.040;12.126;2024-03-06T05:27:45;97523.22;;;5.09;100.00
58875;BME280;44652;49.040;12.126;2024-03-06T05:30:30;97529.72;;;5.19;100.00
58875;BME280;44652;49.040;12.126;2024-03-06T05:33:14;97522.66;;;5.16;100.00
58875;BME280;44652;49.040;12.126;2024-03-06T05:36:01;97530.41;;;5.34;100.00
58875;BME280;44652;49.040;12.126;2024-03-06T05:38:45;97520.25;;;5.21;100.00
58875;BME280;44652;49.040;12.126;2024-03-06T05:41:30;97523.75;;;5.21;100.00
58875;BME280;44652;49.040;12.126;2024-03-06T05:44:14;97519.41;;;5.22;100.00
58875;BME280;44652;49.040;12.126;2024-03-06T05:47:00;97516.91;;;5.23;100.00
58875;BME280;44652;49.040;12.126;2024-03-06T05:49:44;97539.25;;;5.36;100.00
58875;BME280;44652;49.040;12.126;2024-03-06T05:52:29;97546.72;;;5.48;100.00
58875;BME280;44652;49.040;12.126;2024-03-06T05:55:13;97534.22;;;5.41;100.00
58875;BME280;44652;49.040;12.126;2024-03-06T05:57:57;97530.50;;;5.35;100.00
58875;BME280;44652;49.040;12.126;2024-03-06T06:00:35;97539.88;;;5.50;100.00
58875;BME280;44652;49.040;12.126;2024-03-06T06:03:02;97557.28;;;5.49;100.00
58875;BME280;44652;49.040;12.126;2024-03-06T06:05:29;97552.66;;;5.44;100.00
58875;BME280;44652;49.040;12.126;2024-03-06T06:07:56;97562.84;;;5.57;100.00
58875;BME280;44652;49.040;12.126;2024-03-06T06:10:23;97571.06;;;5.66;100.00
58875;BME280;44652;49.040;12.126;2024-03-06T06:12:49;97562.91;;;5.58;100.00
58875;BME280;44652;49.040;12.126;2024-03-06T06:15:16;97554.16;;;5.58;100.00
58875;BME280;44652;49.040;12.126;2024-03-06T06:17:43;97575.75;;;5.73;100.00
58875;BME280;44652;49.040;12.126;2024-03-06T06:20:12;97556.09;;;5.62;100.00
58875;BME280;44652;49.040;12.126;2024-03-06T06:22:43;97574.41;;;5.83;100.00
58875;BME280;44652;49.040;12.126;2024-03-06T06:25:10;97556.19;;;5.84;100.00
58875;BME280;44652;49.040;12.126;2024-03-06T06:27:37;97562.88;;;5.78;100.00
58875;BME280;44652;49.040;12.126;2024-03-06T06:30:06;97554.88;;;5.94;100.00
58875;BME280;44652;49.040;12.126;2024-03-06T06:32:33;97581.03;;;5.94;100.00
58875;BME280;44652;49.040;12.126;2024-03-06T06:35:01;97560.78;;;5.90;100.00
58875;BME280;44652;49.040;12.126;2024-03-06T06:37:28;97586.38;;;6.17;100.00
58875;BME280;44652;49.040;12.126;2024-03-06T06:39:54;97585.50;;;6.16;100.00
58875;BME280;44652;49.040;12.126;2024-03-06T06:42:21;97567.28;;;5.98;100.00
58875;BME280;44652;49.040;12.126;2024-03-06T06:44:48;97569.84;;;5.97;100.00
58875;BME280;44652;49.040;12.126;2024-03-06T06:47:15;97595.13;;;6.17;100.00
58875;BME280;44652;49.040;12.126;2024-03-06T06:49:42;97574.09;;;6.14;100.00
58875;BME280;44652;49.040;12.126;2024-03-06T06:52:08;97579.56;;;6.20;100.00
58875;BME280;44652;49.040;12.126;2024-03-06T06:54:35;97589.41;;;6.26;100.00
58875;BME280;44652;49.040;12.126;2024-03-06T06:57:02;97578.94;;;6.26;100.00
58875;BME280;44652;49.040;12.126;2024-03-06T06:59:30;97586.09;;;6.30;100.00
58875;BME280;44652;49.040;12.126;2024-03-06T07:01:56;97573.94;;;6.11;100.00
58875;BME280;44652;49.040;12.126;2024-03-06T07:04:23;97578.25;;;6.30;100.00
58875;BME280;44652;49.040;12.126;2024-03-06T07:06:51;97590.38;;;6.49;100.00
58875;BME280;44652;49.040;12.126;2024-03-06T07:09:19;97592.19;;;6.51;100.00
58875;BME280;44652;49.040;12.126;2024-03-06T07:11:46;97600.72;;;6.46;100.00
58875;BME280;44652;49.040;12.126;2024-03-06T07:14:13;97580.59;;;6.45;100.00
58875;BME280;44652;49.040;12.126;2024-03-06T07:16:43;97579.31;;;6.35;100.00
58875;BME280;44652;49.040;12.126;2024-03-06T07:19:10;97588.25;;;6.40;100.00
58875;BME280;44652;49.040;12.126;2024-03-06T07:21:37;97597.13;;;6.44;100.00
58875;BME280;44652;49.040;12.126;2024-03-06T07:24:05;97584.41;;;6.32;100.00
58875;BME280;44652;49.040;12.126;2024-03-06T07:26:32;97586.41;;;6.38;100.00
58875;BME280;44652;49.040;12.126;2024-03-06T07:29:00;97605.06;;;6.45;100.00
58875;BME280;44652;49.040;12.126;2024-03-06T07:31:27;97583.09;;;6.42;100.00
58875;BME280;44652;49.040;12.126;2024-03-06T07:33:54;97598.09;;;6.46;100.00
58875;BME280;44652;49.040;12.126;2024-03-06T07:36:21;97593.75;;;6.46;100.00
58875;BME280;44652;49.040;12.126;2024-03-06T07:38:48;97615.13;;;6.57;100.00
58875;BME280;44652;49.040;12.126;2024-03-06T07:41:15;97614.63;;;6.66;100.00
58875;BME280;44652;49.040;12.126;2024-03-06T07:43:43;97616.91;;;6.58;100.00
58875;BME280;44652;49.040;12.126;2024-03-06T07:46:10;97601.13;;;6.36;100.00
58875;BME280;44652;49.040;12.126;2024-03-06T07:48:38;97622.44;;;6.64;100.00
58875;BME280;44652;49.040;12.126;2024-03-06T07:51:05;97635.06;;;6.74;100.00
58875;BME280;44652;49.040;12.126;2024-03-06T07:53:33;97630.19;;;6.63;100.00
58875;BME280;44652;49.040;12.126;2024-03-06T07:56:01;97627.09;;;6.71;100.00
58875;BME280;44652;49.040;12.126;2024-03-06T07:58:27;97644.00;;;6.79;100.00
58875;BME280;44652;49.040;12.126;2024-03-06T08:00:55;97627.72;;;6.66;100.00
58875;BME280;44652;49.040;12.126;2024-03-06T08:03:23;97648.09;;;6.94;100.00
58875;BME280;44652;49.040;12.126;2024-03-06T08:05:52;97625.72;;;6.81;100.00
58875;BME280;44652;49.040;12.126;2024-03-06T08:08:22;97645.41;;;6.71;100.00
58875;BME280;44652;49.040;12.126;2024-03-06T08:10:49;97638.19;;;6.87;100.00
58875;BME280;44652;49.040;12.126;2024-03-06T08:13:16;97662.97;;;6.95;100.00
58875;BME280;44652;49.040;12.126;2024-03-06T08:15:43;97639.72;;;6.81;100.00
58875;BME280;44652;49.040;12.126;2024-03-06T08:18:12;97651.41;;;6.90;100.00
58875;BME280;44652;49.040;12.126;2024-03-06T08:20:40;97672.09;;;7.04;100.00
58875;BME280;44652;49.040;12.126;2024-03-06T08:23:07;97654.28;;;6.96;100.00
58875;BME280;44652;49.040;12.126;2024-03-06T08:25:36;97655.81;;;6.91;100.00
58875;BME280;44652;49.040;12.126;2024-03-06T08:28:04;97680.66;;;7.21;100.00
58875;BME280;44652;49.040;12.126;2024-03-06T08:30:32;97674.13;;;7.12;100.00
58875;BME280;44652;49.040;12.126;2024-03-06T08:32:59;97668.19;;;7.38;100.00
58875;BME280;44652;49.040;12.126;2024-03-06T08:35:26;97664.25;;;7.27;100.00
58875;BME280;44652;49.040;12.126;2024-03-06T08:37:53;97664.19;;;7.25;100.00
58875;BME280;44652;49.040;12.126;2024-03-06T08:40:20;97659.63;;;7.42;100.00
58875;BME280;44652;49.040;12.126;2024-03-06T08:42:47;97659.44;;;7.60;100.00
58875;BME280;44652;49.040;12.126;2024-03-06T08:45:15;97675.41;;;7.89;100.00
58875;BME280;44652;49.040;12.126;2024-03-06T08:47:44;97676.50;;;7.95;100.00
58875;BME280;44652;49.040;12.126;2024-03-06T08:50:12;97677.50;;;7.99;100.00
58875;BME280;44652;49.040;12.126;2024-03-06T08:52:39;97674.56;;;7.90;100.00
58875;BME280;44652;49.040;12.126;2024-03-06T08:55:08;97680.56;;;7.87;100.00
58875;BME280;44652;49.040;12.126;2024-03-06T08:57:35;97682.34;;;8.11;100.00
58875;BME280;44652;49.040;12.126;2024-03-06T09:00:04;97679.50;;;8.04;100.00
58875;BME280;44652;49.040;12.126;2024-03-06T09:02:37;97663.00;;;8.09;100.00
58875;BME280;44652;49.040;12.126;2024-03-06T09:05:09;97680.44;;;8.31;100.00
58875;BME280;44652;49.040;12.126;2024-03-06T09:07:37;97668.53;;;8.16;99.92
58875;BME280;44652;49.040;12.126;2024-03-06T09:10:07;97667.50;;;8.11;100.00
58875;BME280;44652;49.040;12.126;2024-03-06T09:12:35;97685.19;;;8.41;100.00
58875;BME280;44652;49.040;12.126;2024-03-06T09:15:02;97690.59;;;8.21;99.51
58875;BME280;44652;49.040;12.126;2024-03-06T09:17:29;97692.00;;;8.36;98.27
58875;BME280;44652;49.040;12.126;2024-03-06T09:19:57;97694.19;;;8.23;98.21
58875;BME280;44652;49.040;12.126;2024-03-06T09:22:36;97670.44;;;8.20;98.08
58875;BME280;44652;49.040;12.126;2024-03-06T09:25:04;97697.44;;;8.40;98.04
58875;BME280;44652;49.040;12.126;2024-03-06T09:27:31;97662.44;;;8.17;96.65
58875;BME280;44652;49.040;12.126;2024-03-06T09:29:58;97675.50;;;8.38;96.48
58875;BME280;44652;49.040;12.126;2024-03-06T09:32:25;97694.03;;;8.43;95.82
58875;BME280;44652;49.040;12.126;2024-03-06T09:34:53;97675.19;;;8.31;95.25
58875;BME280;44652;49.040;12.126;2024-03-06T09:37:19;97685.19;;;8.41;95.31
58875;BME280;44652;49.040;12.126;2024-03-06T09:39:46;97684.38;;;8.42;95.07
58875;BME280;44652;49.040;12.126;2024-03-06T09:42:15;97703.78;;;8.45;94.98
58875;BME280;44652;49.040;12.126;2024-03-06T09:44:42;97682.22;;;8.56;95.31
58875;BME280;44652;49.040;12.126;2024-03-06T09:47:12;97678.69;;;8.55;94.09
58875;BME280;44652;49.040;12.126;2024-03-06T09:49:41;97670.78;;;8.53;92.76
58875;BME280;44652;49.040;12.126;2024-03-06T09:52:09;97678.09;;;8.62;93.00
58875;BME280;44652;49.040;12.126;2024-03-06T09:54:37;97692.72;;;8.56;92.30
58875;BME280;44652;49.040;12.126;2024-03-06T09:57:06;97685.38;;;8.71;92.81
58875;BME280;44652;49.040;12.126;2024-03-06T09:59:32;97691.84;;;8.81;91.59
58875;BME280;44652;49.040;12.126;2024-03-06T10:02:00;97679.69;;;8.83;90.67
58875;BME280;44652;49.040;12.126;2024-03-06T10:04:33;97678.09;;;8.88;90.35
58875;BME280;44652;49.040;12.126;2024-03-06T10:07:00;97695.91;;;8.96;88.85
58875;BME280;44652;49.040;12.126;2024-03-06T10:09:31;97679.19;;;8.94;89.15
58875;BME280;44652;49.040;12.126;2024-03-06T10:11:59;97688.41;;;9.09;88.52
58875;BME280;44652;49.040;12.126;2024-03-06T10:14:31;97679.88;;;8.89;87.12
58875;BME280;44652;49.040;12.126;2024-03-06T10:17:00;97672.69;;;9.10;87.53
58875;BME280;44652;49.040;12.126;2024-03-06T10:19:28;97693.13;;;9.46;86.10
58875;BME280;44652;49.040;12.126;2024-03-06T10:21:56;97681.19;;;9.57;85.28
58875;BME280;44652;49.040;12.126;2024-03-06T10:24:24;97696.88;;;9.81;85.93
58875;BME280;44652;49.040;12.126;2024-03-06T10:26:52;97687.47;;;9.61;85.54
58875;BME280;44652;49.040;12.126;2024-03-06T10:29:25;97678.97;;;9.42;84.69
58875;BME280;44652;49.040;12.126;2024-03-06T10:31:55;97692.47;;;9.53;83.80
58875;BME280;44652;49.040;12.126;2024-03-06T10:34:27;97691.41;;;9.75;83.40
58875;BME280;44652;49.040;12.126;2024-03-06T10:37:20;97699.06;;;9.67;83.59
58875;BME280;44652;49.040;12.126;2024-03-06T10:39:51;97694.81;;;9.71;82.36
58875;BME280;44652;49.040;12.126;2024-03-06T10:42:21;97691.13;;;9.66;80.94
58875;BME280;44652;49.040;12.126;2024-03-06T10:44:52;97701.47;;;9.60;80.70
58875;BME280;44652;49.040;12.126;2024-03-06T10:47:22;97697.84;;;9.56;80.60
58875;BME280;44652;49.040;12.126;2024-03-06T10:49:53;97687.69;;;9.40;80.60
58875;BME280;44652;49.040;12.126;2024-03-06T10:52:21;97695.22;;;9.56;80.57
58875;BME280;44652;49.040;12.126;2024-03-06T10:54:49;97695.13;;;9.53;81.48
58875;BME280;44652;49.040;12.126;2024-03-06T10:57:16;97701.38;;;9.57;81.56
58875;BME280;44652;49.040;12.126;2024-03-06T10:59:45;97691.81;;;9.60;81.83
58875;BME280;44652;49.040;12.126;2024-03-06T11:02:12;97703.19;;;9.88;79.90
58875;BME280;44652;49.040;12.126;2024-03-06T11:04:40;97697.69;;;9.80;79.89
58875;BME280;44652;49.040;12.126;2024-03-06T11:07:08;97706.66;;;9.85;80.27
58875;BME280;44652;49.040;12.126;2024-03-06T11:09:39;97708.44;;;9.86;81.77
58875;BME280;44652;49.040;12.126;2024-03-06T11:12:06;97695.03;;;9.79;80.09
58875;BME280;44652;49.040;12.126;2024-03-06T11:14:38;97696.13;;;9.58;80.10
58875;BME280;44652;49.040;12.126;2024-03-06T11:17:09;97712.25;;;9.69;79.68
58875;BME280;44652;49.040;12.126;2024-03-06T11:28:22;97697.13;;;9.62;80.83
58875;BME280;44652;49.040;12.126;2024-03-06T11:31:09;97689.88;;;10.12;80.64
58875;BME280;44652;49.040;12.126;2024-03-06T11:33:42;97697.41;;;10.60;77.31
58875;BME280;44652;49.040;12.126;2024-03-06T11:36:18;97698.16;;;10.87;75.68
58875;BME280;44652;49.040;12.126;2024-03-06T11:41:28;97697.63;;;11.73;71.62
58875;BME280;44652;49.040;12.126;2024-03-06T11:43:56;97688.66;;;11.66;68.84
58875;BME280;44652;49.040;12.126;2024-03-06T11:46:46;97690.66;;;11.39;70.39
58875;BME280;44652;49.040;12.126;2024-03-06T11:49:15;97681.84;;;11.38;70.37
58875;BME280;44652;49.040;12.126;2024-03-06T11:51:45;97681.31;;;11.53;68.97
58875;BME280;44652;49.040;12.126;2024-03-06T11:54:13;97699.38;;;11.74;67.67
58875;BME280;44652;49.040;12.126;2024-03-06T11:56:40;97700.69;;;11.17;69.44
58875;BME280;44652;49.040;12.126;2024-03-06T11:59:07;97700.84;;;11.24;68.53
58875;BME280;44652;49.040;12.126;2024-03-06T12:01:37;97693.75;;;10.55;69.81
58875;BME280;44652;49.040;12.126;2024-03-06T12:04:04;97697.03;;;10.79;69.55
58875;BME280;44652;49.040;12.126;2024-03-06T12:06:32;97693.44;;;10.76;70.75
58875;BME280;44652;49.040;12.126;2024-03-06T12:08:59;97698.47;;;10.66;69.82
58875;BME280;44652;49.040;12.126;2024-03-06T12:11:26;97687.41;;;10.48;69.82
58875;BME280;44652;49.040;12.126;2024-03-06T12:13:55;97702.16;;;11.06;69.64
58875;BME280;44652;49.040;12.126;2024-03-06T12:16:22;97681.59;;;11.65;68.46
58875;BME280;44652;49.040;12.126;2024-03-06T12:18:59;97685.00;;;12.40;65.19
58875;BME280;44652;49.040;12.126;2024-03-06T12:21:32;97676.94;;;12.32;63.06
58875;BME280;44652;49.040;12.126;2024-03-06T12:24:06;97686.44;;;13.18;62.99
58875;BME280;44652;49.040;12.126;2024-03-06T12:26:33;97701.81;;;12.89;62.11
58875;BME280;44652;49.040;12.126;2024-03-06T12:29:07;97682.88;;;13.14;61.09
58875;BME280;44652;49.040;12.126;2024-03-06T12:31:36;97675.47;;;14.06;58.54
58875;BME280;44652;49.040;12.126;2024-03-06T12:34:04;97679.84;;;14.71;57.49
58875;BME280;44652;49.040;12.126;2024-03-06T12:36:31;97672.31;;;15.12;56.19
58875;BME280;44652;49.040;12.126;2024-03-06T12:39:00;97682.91;;;15.15;54.77
58875;BME280;44652;49.040;12.126;2024-03-06T12:41:27;97696.69;;;14.74;52.51
58875;BME280;44652;49.040;12.126;2024-03-06T12:43:55;97684.19;;;14.64;54.35
58875;BME280;44652;49.040;12.126;2024-03-06T12:46:23;97691.94;;;14.49;53.24
58875;BME280;44652;49.040;12.126;2024-03-06T12:48:50;97661.75;;;14.38;53.56
58875;BME280;44652;49.040;12.126;2024-03-06T12:51:17;97686.38;;;14.29;53.96
58875;BME280;44652;49.040;12.126;2024-03-06T12:53:44;97681.41;;;13.86;53.74
58875;BME280;44652;49.040;12.126;2024-03-06T12:56:11;97669.31;;;13.46;55.25
58875;BME280;44652;49.040;12.126;2024-03-06T12:58:38;97691.94;;;13.27;55.05
58875;BME280;44652;49.040;12.126;2024-03-06T13:01:05;97692.28;;;14.08;55.33
58875;BME280;44652;49.040;12.126;2024-03-06T13:03:32;97671.59;;;13.82;54.81
58875;BME280;44652;49.040;12.126;2024-03-06T13:05:59;97686.09;;;13.48;54.48
58875;BME280;44652;49.040;12.126;2024-03-06T13:08:26;97680.25;;;13.71;53.95
58875;BME280;44652;49.040;12.126;2024-03-06T13:10:53;97688.47;;;13.31;54.83
58875;BME280;44652;49.040;12.126;2024-03-06T13:13:20;97673.25;;;13.73;54.53
58875;BME280;44652;49.040;12.126;2024-03-06T13:15:47;97665.00;;;14.15;55.14